createdAt,value
2023-03-07T00:00:36.139Z,17.07
2023-03-07T00:01:38.082Z,17.24
2023-03-07T00:02:40.449Z,17.33
2023-03-07T00:03:42.342Z,17.43
2023-03-07T00:04:46.219Z,17.39
2023-03-07T00:05:48.067Z,17.06
2023-03-07T00:06:49.844Z,17.24
2023-03-07T00:07:51.681Z,17.48
2023-03-07T00:08:56.151Z,17.22
2023-03-07T00:10:01.027Z,17.17
2023-03-07T00:11:04.837Z,17.17
2023-03-07T00:12:08.751Z,16.95
2023-03-07T00:13:10.553Z,17.38
2023-03-07T00:14:12.357Z,17.08
2023-03-07T00:15:14.293Z,17.29
2023-03-07T00:16:18.673Z,17.36
2023-03-07T00:17:20.475Z,17.35
2023-03-07T00:18:22.275Z,17.28
2023-03-07T00:19:24.115Z,17.33
2023-03-07T00:20:25.933Z,17.01
2023-03-07T00:21:31.464Z,17.11
2023-03-07T00:22:34.714Z,17.28
2023-03-07T00:23:38.824Z,17.20
2023-03-07T00:24:40.717Z,16.90
2023-03-07T00:25:42.572Z,16.78
2023-03-07T00:26:44.403Z,17.21
2023-03-07T00:27:46.246Z,17.16
2023-03-07T00:28:50.106Z,17.45
2023-03-07T00:29:52.048Z,17.42
2023-03-07T00:30:54.588Z,16.96
2023-03-07T00:31:56.434Z,16.96
2023-03-07T00:32:59.045Z,17.30
2023-03-07T00:34:00.960Z,17.42
2023-03-07T00:35:03.218Z,17.56
2023-03-07T00:36:11.969Z,17.12
2023-03-07T00:37:15.317Z,17.16
2023-03-07T00:38:17.117Z,17.20
2023-03-07T00:39:18.923Z,16.81
2023-03-07T00:40:20.690Z,17.31
2023-03-07T00:41:27.135Z,17.39
2023-03-07T00:42:28.941Z,16.84
2023-03-07T00:43:31.856Z,17.31
2023-03-07T00:44:34.427Z,17.56
2023-03-07T00:45:36.393Z,17.17
2023-03-07T00:46:38.241Z,17.21
2023-03-07T00:47:40.159Z,17.23
2023-03-07T00:48:42.765Z,17.58
2023-03-07T00:49:44.639Z,17.00
2023-03-07T00:50:46.944Z,17.42
2023-03-07T00:51:48.777Z,17.49
2023-03-07T00:52:50.839Z,17.51
2023-03-07T00:53:52.756Z,17.05
2023-03-07T00:54:55.463Z,17.48
2023-03-07T00:55:57.476Z,17.16
2023-03-07T00:56:59.571Z,17.35
2023-03-07T00:58:01.472Z,17.12
2023-03-07T00:59:04.184Z,17.29
2023-03-07T01:00:07.472Z,17.40
2023-03-07T01:01:11.634Z,17.45
2023-03-07T01:02:13.724Z,17.13
2023-03-07T01:03:15.572Z,17.16
2023-03-07T01:04:17.930Z,17.02
2023-03-07T01:05:19.789Z,17.33
2023-03-07T01:06:27.621Z,17.19
2023-03-07T01:07:30.029Z,17.53
2023-03-07T01:08:32.350Z,17.27
2023-03-07T01:09:34.147Z,17.40
2023-03-07T01:10:36.020Z,17.35
2023-03-07T01:11:38.628Z,17.44
2023-03-07T01:12:40.410Z,16.89
2023-03-07T01:13:42.980Z,17.18
2023-03-07T01:14:45.102Z,17.20
2023-03-07T01:15:47.013Z,17.33
2023-03-07T01:16:48.921Z,17.50
2023-03-07T01:17:51.321Z,17.00
2023-03-07T01:18:59.578Z,17.64
2023-03-07T01:20:07.126Z,16.90
2023-03-07T01:21:18.494Z,17.25
2023-03-07T01:22:20.593Z,17.24
2023-03-07T01:23:22.479Z,16.99
2023-03-07T01:24:24.354Z,17.17
2023-03-07T01:25:28.110Z,17.52
2023-03-07T01:26:31.802Z,16.83
2023-03-07T01:27:34.273Z,16.94
2023-03-07T01:28:36.331Z,17.37
2023-03-07T01:29:38.576Z,17.52
2023-03-07T01:30:41.078Z,17.13
2023-03-07T01:31:43.263Z,17.23
2023-03-07T01:32:45.201Z,17.37
2023-03-07T01:33:48.839Z,16.93
2023-03-07T01:34:51.001Z,17.46
2023-03-07T01:35:53.116Z,17.21
2023-03-07T01:36:55.158Z,17.56
2023-03-07T01:37:57.311Z,17.41
2023-03-07T01:39:02.877Z,16.93
2023-03-07T01:40:05.135Z,17.30
2023-03-07T01:41:06.922Z,17.31
2023-03-07T01:42:08.836Z,17.62
2023-03-07T01:43:30.953Z,16.83
2023-03-07T01:45:07.933Z,17.16
2023-03-07T01:46:37.488Z,17.49
2023-03-07T01:47:40.613Z,17.12
2023-03-07T01:48:47.214Z,17.41
2023-03-07T01:49:49.397Z,16.80
2023-03-07T01:50:51.722Z,17.31
2023-03-07T01:52:03.240Z,17.57
2023-03-07T01:53:06.041Z,17.56
2023-03-07T01:54:11.910Z,16.69
2023-03-07T01:55:21.516Z,17.05
2023-03-07T01:56:26.466Z,17.03
2023-03-07T01:57:34.301Z,17.22
2023-03-07T01:58:39.168Z,17.15
2023-03-07T01:59:46.429Z,17.17
2023-03-07T02:00:48.489Z,16.88
2023-03-07T02:01:51.849Z,16.99
2023-03-07T02:03:09.398Z,17.00
2023-03-07T02:04:30.503Z,17.36
2023-03-07T02:05:38.326Z,17.16
2023-03-07T02:06:40.458Z,17.47
2023-03-07T02:07:48.468Z,17.55
2023-03-07T02:08:54.537Z,17.22
2023-03-07T02:09:58.048Z,17.03
2023-03-07T02:10:59.897Z,17.49
2023-03-07T02:12:02.043Z,17.49
2023-03-07T02:13:05.045Z,16.95
2023-03-07T02:14:07.162Z,17.06
2023-03-07T02:15:10.496Z,17.63
2023-03-07T02:16:13.137Z,17.24
2023-03-07T02:17:15.204Z,17.43
2023-03-07T02:18:23.503Z,17.26
2023-03-07T02:19:40.419Z,17.17
2023-03-07T02:21:23.850Z,17.20
2023-03-07T02:22:26.725Z,16.84
2023-03-07T02:23:43.977Z,17.11
2023-03-07T02:24:56.313Z,17.17
2023-03-07T02:26:22.055Z,17.03
2023-03-07T02:27:25.808Z,17.26
2023-03-07T02:28:28.704Z,17.24
2023-03-07T02:29:30.577Z,17.15
2023-03-07T02:30:32.425Z,16.70
2023-03-07T02:31:34.224Z,17.11
2023-03-07T02:32:36.167Z,17.40
2023-03-07T02:33:38.081Z,16.84
2023-03-07T02:34:44.094Z,17.29
2023-03-07T02:35:55.306Z,17.18
2023-03-07T02:37:05.075Z,16.78
2023-03-07T02:38:07.601Z,17.38
2023-03-07T02:39:10.053Z,16.81
2023-03-07T02:40:14.524Z,17.25
2023-03-07T02:41:21.093Z,16.83
2023-03-07T02:42:26.896Z,17.20
2023-03-07T02:43:42.261Z,17.20
2023-03-07T02:44:46.722Z,16.93
2023-03-07T02:45:50.969Z,17.48
2023-03-07T02:46:53.157Z,16.86
2023-03-07T02:47:57.672Z,17.35
2023-03-07T02:48:59.561Z,17.04
2023-03-07T02:50:01.516Z,17.30
2023-03-07T02:51:03.912Z,16.91
2023-03-07T02:52:06.161Z,16.98
2023-03-07T02:53:08.153Z,17.65
2023-03-07T02:54:10.083Z,17.17
2023-03-07T02:55:12.862Z,16.76
2023-03-07T02:56:21.096Z,17.00
2023-03-07T02:57:22.931Z,16.79
2023-03-07T02:58:25.054Z,17.41
2023-03-07T02:59:26.930Z,17.07
2023-03-07T03:00:28.988Z,17.24
2023-03-07T03:01:31.555Z,17.28
2023-03-07T03:02:34.105Z,17.23
2023-03-07T03:03:35.991Z,17.08
2023-03-07T03:04:37.850Z,17.31
2023-03-07T03:05:39.646Z,16.79
2023-03-07T03:06:41.515Z,16.85
2023-03-07T03:07:43.837Z,17.61
2023-03-07T03:08:45.610Z,17.33
2023-03-07T03:09:47.446Z,16.93
2023-03-07T03:10:53.821Z,17.68
2023-03-07T03:11:58.123Z,17.38
2023-03-07T03:13:02.584Z,17.07
2023-03-07T03:14:04.552Z,17.50
2023-03-07T03:15:07.086Z,16.77
2023-03-07T03:16:09.006Z,17.42
2023-03-07T03:17:10.857Z,17.20
2023-03-07T03:18:12.629Z,16.89
2023-03-07T03:19:14.388Z,17.46
2023-03-07T03:20:17.184Z,16.81
2023-03-07T03:21:19.090Z,17.60
2023-03-07T03:22:21.017Z,17.65
2023-03-07T03:23:28.359Z,17.22
2023-03-07T03:24:30.753Z,16.92
2023-03-07T03:25:32.843Z,17.57
2023-03-07T03:26:36.163Z,17.24
2023-03-07T03:27:38.745Z,17.24
2023-03-07T03:28:40.712Z,16.90
2023-03-07T03:29:42.560Z,17.19
2023-03-07T03:30:44.625Z,17.39
2023-03-07T03:31:46.464Z,16.93
2023-03-07T03:32:48.320Z,17.14
2023-03-07T03:33:52.985Z,17.05
2023-03-07T03:34:54.850Z,17.25
2023-03-07T03:35:57.989Z,16.93
2023-03-07T03:37:00.292Z,16.81
2023-03-07T03:38:03.187Z,17.36
2023-03-07T03:39:10.884Z,16.84
2023-03-07T03:40:17.783Z,17.03
2023-03-07T03:41:21.475Z,17.44
2023-03-07T03:42:24.045Z,17.38
2023-03-07T03:43:25.946Z,17.17
2023-03-07T03:44:27.753Z,17.17
2023-03-07T03:45:30.966Z,17.13
2023-03-07T03:46:32.877Z,16.74
2023-03-07T03:47:35.895Z,16.84
2023-03-07T03:48:38.064Z,17.06
2023-03-07T03:49:40.246Z,17.19
2023-03-07T03:50:42.164Z,17.24
2023-03-07T03:51:43.955Z,17.05
2023-03-07T03:52:46.018Z,17.55
2023-03-07T03:53:48.758Z,16.81
2023-03-07T03:54:50.640Z,16.88
2023-03-07T03:55:53.458Z,17.09
2023-03-07T03:56:55.248Z,17.09
2023-03-07T03:57:58.925Z,16.89
2023-03-07T03:59:00.773Z,16.75
2023-03-07T04:00:05.096Z,16.84
2023-03-07T04:01:14.222Z,17.23
2023-03-07T04:02:16.440Z,17.02
2023-03-07T04:03:18.313Z,17.23
2023-03-07T04:04:20.096Z,17.13
2023-03-07T04:05:22.175Z,17.27
2023-03-07T04:06:30.019Z,17.42
2023-03-07T04:07:32.513Z,17.01
2023-03-07T04:08:35.628Z,16.90
2023-03-07T04:09:37.511Z,16.83
2023-03-07T04:10:39.825Z,17.25
2023-03-07T04:11:41.712Z,16.95
2023-03-07T04:12:43.700Z,16.65
2023-03-07T04:13:45.557Z,16.59
2023-03-07T04:14:47.826Z,16.70
2023-03-07T04:15:49.726Z,17.27
2023-03-07T04:16:51.660Z,16.93
2023-03-07T04:17:53.597Z,16.69
2023-03-07T04:18:55.545Z,16.82
2023-03-07T04:19:57.463Z,16.62
2023-03-07T04:20:59.990Z,17.24
2023-03-07T04:22:01.853Z,16.99
2023-03-07T04:23:03.928Z,17.12
2023-03-07T04:24:09.821Z,17.32
2023-03-07T04:25:11.766Z,17.19
2023-03-07T04:26:13.633Z,16.85
2023-03-07T04:27:15.680Z,16.73
2023-03-07T04:28:18.704Z,16.85
2023-03-07T04:29:20.672Z,17.45
2023-03-07T04:30:38.384Z,17.46
2023-03-07T04:31:40.255Z,17.06
2023-03-07T04:32:43.061Z,16.78
2023-03-07T04:33:45.969Z,17.38
2023-03-07T04:34:47.818Z,17.04
2023-03-07T04:35:50.096Z,17.05
2023-03-07T04:36:52.027Z,17.09
2023-03-07T04:37:53.866Z,17.25
2023-03-07T04:38:55.794Z,16.82
2023-03-07T04:39:57.613Z,16.98
2023-03-07T04:40:59.717Z,17.32
2023-03-07T04:42:01.672Z,17.16
2023-03-07T04:43:09.133Z,16.63
2023-03-07T04:44:10.969Z,17.47
2023-03-07T04:45:12.986Z,17.28
2023-03-07T04:46:17.049Z,17.22
2023-03-07T04:47:18.940Z,16.70
2023-03-07T04:48:20.908Z,17.27
2023-03-07T04:49:22.702Z,16.95
2023-03-07T04:50:24.612Z,17.24
2023-03-07T04:51:26.555Z,17.15
2023-03-07T04:52:28.923Z,17.41
2023-03-07T04:53:30.875Z,16.81
2023-03-07T04:54:33.160Z,16.89
2023-03-07T04:55:36.572Z,16.87
2023-03-07T04:56:39.843Z,16.73
2023-03-07T04:57:43.881Z,17.45
2023-03-07T04:58:47.982Z,16.78
2023-03-07T04:59:52.017Z,16.78
2023-03-07T05:00:54.045Z,17.01
2023-03-07T05:01:55.920Z,16.77
2023-03-07T05:02:58.753Z,17.32
2023-03-07T05:04:00.677Z,17.10
2023-03-07T05:05:04.365Z,17.04
2023-03-07T05:06:08.785Z,17.02
2023-03-07T05:07:10.834Z,16.91
2023-03-07T05:08:12.797Z,16.80
2023-03-07T05:09:14.683Z,17.25
2023-03-07T05:10:16.892Z,16.67
2023-03-07T05:11:18.990Z,17.27
2023-03-07T05:12:20.964Z,17.20
2023-03-07T05:13:23.061Z,17.13
2023-03-07T05:14:25.110Z,16.78
2023-03-07T05:15:27.119Z,17.04
2023-03-07T05:16:29.100Z,16.67
2023-03-07T05:17:31.791Z,17.21
2023-03-07T05:18:33.662Z,16.60
2023-03-07T05:19:36.233Z,17.34
2023-03-07T05:20:38.150Z,16.70
2023-03-07T05:21:41.788Z,17.05
2023-03-07T05:22:44.595Z,16.76
2023-03-07T05:23:46.558Z,16.94
2023-03-07T05:24:48.818Z,16.96
2023-03-07T05:25:51.043Z,16.96
2023-03-07T05:26:52.906Z,17.30
2023-03-07T05:27:54.748Z,16.62
2023-03-07T05:28:56.564Z,17.18
2023-03-07T05:29:58.660Z,16.78
2023-03-07T05:31:00.606Z,17.39
2023-03-07T05:32:02.782Z,16.99
2023-03-07T05:33:05.171Z,16.90
2023-03-07T05:34:08.782Z,17.35
2023-03-07T05:35:12.444Z,17.12
2023-03-07T05:36:16.413Z,17.23
2023-03-07T05:37:18.508Z,17.17
2023-03-07T05:38:20.422Z,17.13
2023-03-07T05:39:22.348Z,17.35
2023-03-07T05:40:24.781Z,16.96
2023-03-07T05:41:26.682Z,17.38
2023-03-07T05:42:29.436Z,17.31
2023-03-07T05:43:31.212Z,17.33
2023-03-07T05:44:34.258Z,16.67
2023-03-07T05:45:37.680Z,16.81
2023-03-07T05:46:40.288Z,17.14
2023-03-07T05:47:42.143Z,16.81
2023-03-07T05:48:45.970Z,17.00
2023-03-07T05:49:47.809Z,16.73
2023-03-07T05:50:49.852Z,16.82
2023-03-07T05:51:53.068Z,16.75
2023-03-07T05:52:56.324Z,16.54
2023-03-07T05:54:01.344Z,17.17
2023-03-07T05:55:04.654Z,16.83
2023-03-07T05:56:08.174Z,16.82
2023-03-07T05:57:11.656Z,16.58
2023-03-07T05:58:15.220Z,17.13
2023-03-07T05:59:19.272Z,16.68
2023-03-07T06:00:23.566Z,16.91
2023-03-07T06:01:30.645Z,16.74
2023-03-07T06:02:33.165Z,16.89
2023-03-07T06:03:35.057Z,16.40
2023-03-07T06:04:36.912Z,16.73
2023-03-07T06:05:39.364Z,16.87
2023-03-07T06:06:41.240Z,16.72
2023-03-07T06:07:44.275Z,16.85
2023-03-07T06:08:48.754Z,17.09
2023-03-07T06:09:52.195Z,17.21
2023-03-07T06:10:56.290Z,16.52
2023-03-07T06:11:58.958Z,17.13
2023-03-07T06:13:00.773Z,16.52
2023-03-07T06:14:02.608Z,16.74
2023-03-07T06:15:05.178Z,17.15
2023-03-07T06:16:09.369Z,17.07
2023-03-07T06:17:13.761Z,16.79
2023-03-07T06:18:17.544Z,16.77
2023-03-07T06:19:19.394Z,16.38
2023-03-07T06:20:23.781Z,16.73
2023-03-07T06:21:28.658Z,16.65
2023-03-07T06:22:34.605Z,16.57
2023-03-07T06:23:37.609Z,16.37
2023-03-07T06:24:44.096Z,16.46
2023-03-07T06:25:46.007Z,16.87
2023-03-07T06:26:49.146Z,16.33
2023-03-07T06:27:59.748Z,16.35
2023-03-07T06:29:02.271Z,16.42
2023-03-07T06:30:08.859Z,16.42
2023-03-07T06:31:12.925Z,16.15
2023-03-07T06:32:15.023Z,16.36
2023-03-07T06:33:17.711Z,16.46
2023-03-07T06:34:19.541Z,15.98
2023-03-07T06:35:22.245Z,16.39
2023-03-07T06:36:25.751Z,16.31
2023-03-07T06:37:31.706Z,15.96
2023-03-07T06:38:35.646Z,16.02
2023-03-07T06:39:37.660Z,15.98
2023-03-07T06:40:41.430Z,16.47
2023-03-07T06:41:47.458Z,16.23
2023-03-07T06:42:49.320Z,16.24
2023-03-07T06:43:53.944Z,16.30
2023-03-07T06:45:01.275Z,15.77
2023-03-07T06:46:04.500Z,16.36
2023-03-07T06:47:09.812Z,16.20
2023-03-07T06:48:12.041Z,16.30
2023-03-07T06:49:15.187Z,16.22
2023-03-07T06:50:26.650Z,16.21
2023-03-07T06:51:37.921Z,16.02
2023-03-07T06:52:41.700Z,16.34
2023-03-07T06:53:44.165Z,15.73
2023-03-07T06:54:46.085Z,15.91
2023-03-07T06:55:51.971Z,15.76
2023-03-07T06:56:55.150Z,15.77
2023-03-07T06:57:58.197Z,15.97
2023-03-07T06:59:00.465Z,15.51
2023-03-07T07:00:05.918Z,16.30
2023-03-07T07:01:15.977Z,16.00
2023-03-07T07:02:17.841Z,15.61
2023-03-07T07:03:20.529Z,15.88
2023-03-07T07:04:22.402Z,16.15
2023-03-07T07:05:25.620Z,15.80
2023-03-07T07:06:27.576Z,15.73
2023-03-07T07:07:29.687Z,15.99
2023-03-07T07:08:32.367Z,15.73
2023-03-07T07:09:34.534Z,15.81
2023-03-07T07:10:36.942Z,16.14
2023-03-07T07:11:40.733Z,15.55
2023-03-07T07:12:46.133Z,15.74
2023-03-07T07:13:48.080Z,15.94
2023-03-07T07:14:53.458Z,15.85
2023-03-07T07:15:55.292Z,15.70
2023-03-07T07:16:58.524Z,15.79
2023-03-07T07:18:02.471Z,15.75
2023-03-07T07:19:06.420Z,15.54
2023-03-07T07:20:11.379Z,16.03
2023-03-07T07:21:15.441Z,15.92
2023-03-07T07:22:18.197Z,15.79
2023-03-07T07:23:20.701Z,16.08
2023-03-07T07:24:23.752Z,15.72
2023-03-07T07:25:27.484Z,15.92
2023-03-07T07:26:29.286Z,15.65
2023-03-07T07:27:33.232Z,16.15
2023-03-07T07:28:36.489Z,15.44
2023-03-07T07:29:40.898Z,15.78
2023-03-07T07:30:44.083Z,15.88
2023-03-07T07:31:49.815Z,15.42
2023-03-07T07:32:53.860Z,15.87
2023-03-07T07:33:57.218Z,15.50
2023-03-07T07:35:02.188Z,15.76
2023-03-07T07:36:06.884Z,15.72
2023-03-07T07:37:10.433Z,15.66
2023-03-07T07:38:13.019Z,15.71
2023-03-07T07:39:15.351Z,15.65
2023-03-07T07:40:19.287Z,15.68
2023-03-07T07:41:22.584Z,15.99
2023-03-07T07:42:28.043Z,15.86
2023-03-07T07:43:50.154Z,15.70
2023-03-07T07:44:57.222Z,15.61
2023-03-07T07:45:59.785Z,15.89
2023-03-07T07:47:01.581Z,15.41
2023-03-07T07:48:03.621Z,15.74
2023-03-07T07:49:05.475Z,15.88
2023-03-07T07:50:07.791Z,15.74
2023-03-07T07:51:10.168Z,15.86
2023-03-07T07:52:13.349Z,16.08
2023-03-07T07:53:17.898Z,15.57
2023-03-07T07:54:20.957Z,15.56
2023-03-07T07:55:25.092Z,15.94
2023-03-07T07:56:27.076Z,16.09
2023-03-07T07:57:28.964Z,15.51
2023-03-07T07:58:32.668Z,15.73
2023-03-07T07:59:36.534Z,16.02
2023-03-07T08:00:40.870Z,15.91
2023-03-07T08:01:43.436Z,15.84
2023-03-07T08:02:45.273Z,15.69
2023-03-07T08:03:47.564Z,15.50
2023-03-07T08:04:49.534Z,15.74
2023-03-07T08:05:52.058Z,15.74
2023-03-07T08:06:53.865Z,16.06
2023-03-07T08:07:56.962Z,15.99
2023-03-07T08:09:00.241Z,15.86
2023-03-07T08:10:02.186Z,16.02
2023-03-07T08:11:04.361Z,15.97
2023-03-07T08:12:06.623Z,16.24
2023-03-07T08:13:11.692Z,15.94
2023-03-07T08:14:13.540Z,15.50
2023-03-07T08:15:17.212Z,16.02
2023-03-07T08:16:22.577Z,15.92
2023-03-07T08:17:24.476Z,16.03
2023-03-07T08:18:26.435Z,16.30
2023-03-07T08:19:28.300Z,15.57
2023-03-07T08:20:30.082Z,15.47
2023-03-07T08:21:31.849Z,16.34
2023-03-07T08:22:33.982Z,16.00
2023-03-07T08:23:37.000Z,15.98
2023-03-07T08:24:41.073Z,16.20
2023-03-07T08:25:43.141Z,15.85
2023-03-07T08:26:45.036Z,16.03
2023-03-07T08:27:47.001Z,15.72
2023-03-07T08:28:49.106Z,15.99
2023-03-07T08:29:50.951Z,15.77
2023-03-07T08:30:52.829Z,15.69
2023-03-07T08:31:54.726Z,16.35
2023-03-07T08:32:57.392Z,15.57
2023-03-07T08:33:59.258Z,15.98
2023-03-07T08:35:01.113Z,16.06
2023-03-07T08:36:03.368Z,16.19
2023-03-07T08:37:05.226Z,16.30
2023-03-07T08:38:07.064Z,15.54
2023-03-07T08:39:09.438Z,16.06
2023-03-07T08:40:12.282Z,15.70
2023-03-07T08:41:14.084Z,15.57
2023-03-07T08:42:16.019Z,16.22
2023-03-07T08:43:18.049Z,15.87
2023-03-07T08:44:19.932Z,15.96
2023-03-07T08:45:23.922Z,15.95
2023-03-07T08:46:26.073Z,16.22
2023-03-07T08:47:28.101Z,15.75
2023-03-07T08:48:29.918Z,15.73
2023-03-07T08:49:31.766Z,16.22
2023-03-07T08:50:33.536Z,16.27
2023-03-07T08:51:35.368Z,16.34
2023-03-07T08:52:37.553Z,15.81
2023-03-07T08:53:39.398Z,16.07
2023-03-07T08:54:41.270Z,16.17
2023-03-07T08:55:43.647Z,16.16
2023-03-07T08:56:45.511Z,15.83
2023-03-07T08:57:47.829Z,15.95
2023-03-07T08:58:52.992Z,16.31
2023-03-07T08:59:54.794Z,16.02
2023-03-07T09:00:58.301Z,15.93
2023-03-07T09:02:00.386Z,16.06
2023-03-07T09:03:02.307Z,16.08
2023-03-07T09:04:05.106Z,15.71
2023-03-07T09:05:07.117Z,15.94
2023-03-07T09:06:16.044Z,16.17
2023-03-07T09:07:19.208Z,16.29
2023-03-07T09:08:21.240Z,15.94
2023-03-07T09:09:23.232Z,15.97
2023-03-07T09:10:27.319Z,16.20
2023-03-07T09:11:29.841Z,16.46
2023-03-07T09:12:33.948Z,16.24
2023-03-07T09:13:42.984Z,16.16
2023-03-07T09:14:54.455Z,16.09
2023-03-07T09:15:56.262Z,16.10
2023-03-07T09:16:58.113Z,16.26
2023-03-07T09:17:59.939Z,16.37
2023-03-07T09:19:02.120Z,16.26
2023-03-07T09:20:04.810Z,16.05
2023-03-07T09:21:06.890Z,16.43
2023-03-07T09:22:08.860Z,16.59
2023-03-07T09:23:10.922Z,16.20
2023-03-07T09:24:12.774Z,16.53
2023-03-07T09:25:14.809Z,16.36
2023-03-07T09:26:16.753Z,16.54
2023-03-07T09:27:19.038Z,16.30
2023-03-07T09:28:20.927Z,16.20
2023-03-07T09:29:23.326Z,16.46
2023-03-07T09:30:27.164Z,16.41
2023-03-07T09:31:29.091Z,16.08
2023-03-07T09:32:34.104Z,16.48
2023-03-07T09:33:36.380Z,15.94
2023-03-07T09:34:38.227Z,16.34
2023-03-07T09:35:40.060Z,16.70
2023-03-07T09:36:42.029Z,16.53
2023-03-07T09:37:43.895Z,16.53
2023-03-07T09:38:47.267Z,16.08
2023-03-07T09:39:50.435Z,16.68
2023-03-07T09:40:52.836Z,16.51
2023-03-07T09:42:32.089Z,16.13
2023-03-07T09:43:47.387Z,16.45
2023-03-07T09:45:23.058Z,16.49
2023-03-07T09:47:16.094Z,16.44
2023-03-07T09:49:03.194Z,16.60
2023-03-07T09:50:14.293Z,16.23
2023-03-07T09:51:21.462Z,16.13
2023-03-07T09:52:27.256Z,16.19
2023-03-07T09:53:39.210Z,16.28
2023-03-07T09:54:53.382Z,16.24
2023-03-07T09:55:58.706Z,16.56
2023-03-07T09:57:02.780Z,16.53
2023-03-07T09:58:16.073Z,16.47
2023-03-07T09:59:34.867Z,16.40
2023-03-07T10:00:40.570Z,16.54
2023-03-07T10:01:44.516Z,16.59
2023-03-07T10:03:11.757Z,16.36
2023-03-07T10:04:21.483Z,16.14
2023-03-07T10:05:37.760Z,16.22
2023-03-07T10:06:46.275Z,16.63
2023-03-07T10:07:48.528Z,16.10
2023-03-07T10:08:50.935Z,16.18
2023-03-07T10:09:59.760Z,16.99
2023-03-07T10:11:52.237Z,16.81
2023-03-07T10:13:15.891Z,16.34
2023-03-07T10:14:42.497Z,16.20
2023-03-07T10:15:53.072Z,16.74
2023-03-07T10:17:32.870Z,16.35
2023-03-07T10:18:53.003Z,16.63
2023-03-07T10:20:08.406Z,16.50
2023-03-07T10:21:13.109Z,16.21
2023-03-07T10:22:32.355Z,16.61
2023-03-07T10:23:55.565Z,16.63
2023-03-07T10:25:23.921Z,16.49
2023-03-07T10:26:54.676Z,16.16
2023-03-07T10:28:13.382Z,16.58
2023-03-07T10:29:19.106Z,16.48
2023-03-07T10:30:21.143Z,16.61
2023-03-07T10:31:30.543Z,16.32
2023-03-07T10:32:35.682Z,16.57
2023-03-07T10:33:40.789Z,16.88
2023-03-07T10:34:42.768Z,16.33
2023-03-07T10:35:52.492Z,16.65
2023-03-07T10:37:08.794Z,16.94
2023-03-07T10:38:23.858Z,16.82
2023-03-07T10:39:29.168Z,16.56
2023-03-07T10:40:39.284Z,16.42
2023-03-07T10:41:41.082Z,17.00
2023-03-07T10:42:43.044Z,16.75
2023-03-07T10:43:46.031Z,16.54
2023-03-07T10:44:49.077Z,16.65
2023-03-07T10:45:58.876Z,16.61
2023-03-07T10:47:00.794Z,16.96
2023-03-07T10:48:10.039Z,16.50
2023-03-07T10:49:37.647Z,16.38
2023-03-07T10:50:58.417Z,17.01
2023-03-07T10:52:31.850Z,16.82
2023-03-07T10:53:36.552Z,16.41
2023-03-07T10:54:39.000Z,16.61
2023-03-07T10:55:46.782Z,17.02
2023-03-07T10:57:06.847Z,16.40
2023-03-07T10:58:24.149Z,16.65
2023-03-07T10:59:26.009Z,16.80
2023-03-07T11:00:28.166Z,16.38
2023-03-07T11:01:31.522Z,16.79
2023-03-07T11:02:37.192Z,16.67
2023-03-07T11:03:55.893Z,16.72
2023-03-07T11:04:59.227Z,16.79
2023-03-07T11:06:01.308Z,16.78
2023-03-07T11:07:03.249Z,16.45
2023-03-07T11:08:29.369Z,16.51
2023-03-07T11:09:36.652Z,17.02
2023-03-07T11:10:40.300Z,17.06
2023-03-07T11:11:51.727Z,16.47
2023-03-07T11:12:55.932Z,16.43
2023-03-07T11:14:14.725Z,16.95
2023-03-07T11:15:24.654Z,17.01
2023-03-07T11:16:26.593Z,16.90
2023-03-07T11:17:39.355Z,16.59
2023-03-07T11:18:43.174Z,16.59
2023-03-07T11:19:47.105Z,16.74
2023-03-07T11:20:50.064Z,16.91
2023-03-07T11:21:56.402Z,16.53
2023-03-07T11:23:16.957Z,16.79
2023-03-07T11:24:29.681Z,16.25
2023-03-07T11:25:36.468Z,16.68
2023-03-07T11:26:41.219Z,16.75
2023-03-07T11:27:46.091Z,16.38
2023-03-07T11:28:47.893Z,16.55
2023-03-07T11:30:27.598Z,16.93
2023-03-07T11:31:36.507Z,16.54
2023-03-07T11:32:43.026Z,16.40
2023-03-07T11:33:59.421Z,16.48
2023-03-07T11:35:15.569Z,16.74
2023-03-07T11:36:22.569Z,16.49
2023-03-07T11:37:47.657Z,16.33
2023-03-07T11:39:06.529Z,16.46
2023-03-07T11:40:30.308Z,16.49
2023-03-07T11:41:42.053Z,16.44
2023-03-07T11:42:57.649Z,16.57
2023-03-07T11:44:33.504Z,16.24
2023-03-07T11:46:05.912Z,16.76
2023-03-07T11:47:19.773Z,16.58
2023-03-07T11:49:19.560Z,16.18
2023-03-07T11:50:24.186Z,16.21
2023-03-07T11:51:40.681Z,16.23
2023-03-07T11:52:45.394Z,16.67
2023-03-07T11:53:50.158Z,16.64
2023-03-07T11:55:16.539Z,16.49
2023-03-07T11:56:24.993Z,16.43
2023-03-07T11:57:39.369Z,16.82
2023-03-07T11:58:47.096Z,16.70
2023-03-07T12:00:03.201Z,16.75
2023-03-07T12:01:30.081Z,16.52
2023-03-07T12:02:59.171Z,16.52
2023-03-07T12:04:42.940Z,16.72
2023-03-07T12:06:03.391Z,16.34
2023-03-07T12:07:23.230Z,16.37
2023-03-07T12:08:43.689Z,16.70
2023-03-07T12:09:54.579Z,16.80
2023-03-07T12:11:46.113Z,16.41
2023-03-07T12:13:06.281Z,16.66
2023-03-07T12:14:32.432Z,16.58
2023-03-07T12:15:40.771Z,16.87
2023-03-07T12:17:14.921Z,16.67
2023-03-07T12:18:32.070Z,16.66
2023-03-07T12:19:33.784Z,16.80
2023-03-07T12:21:02.079Z,16.79
2023-03-07T12:22:09.547Z,16.80
2023-03-07T12:23:20.933Z,16.96
2023-03-07T12:24:31.535Z,17.03
2023-03-07T12:25:33.283Z,16.56
2023-03-07T12:27:02.232Z,16.60
2023-03-07T12:28:19.231Z,16.58
2023-03-07T12:29:30.672Z,17.02
2023-03-07T12:30:54.064Z,17.20
2023-03-07T12:32:00.832Z,16.91
2023-03-07T12:33:04.969Z,16.92
2023-03-07T12:34:09.553Z,16.81
2023-03-07T12:35:32.742Z,16.71
2023-03-07T12:36:42.334Z,16.87
2023-03-07T12:37:49.354Z,17.11
2023-03-07T12:38:59.399Z,16.80
2023-03-07T12:40:04.972Z,17.06
2023-03-07T12:41:41.315Z,16.63
2023-03-07T12:43:06.497Z,16.75
2023-03-07T12:44:30.122Z,16.61
2023-03-07T12:45:45.821Z,16.82
2023-03-07T12:47:23.567Z,16.58
2023-03-07T12:48:44.592Z,16.64
2023-03-07T12:49:56.984Z,17.00
2023-03-07T12:51:17.443Z,16.72
2023-03-07T12:52:46.235Z,16.74
2023-03-07T12:53:55.492Z,16.93
2023-03-07T12:55:14.093Z,16.97
2023-03-07T12:56:22.353Z,16.68
2023-03-07T12:57:43.844Z,16.82
2023-03-07T12:59:00.621Z,17.15
2023-03-07T13:00:08.041Z,17.04
2023-03-07T13:01:15.893Z,16.93
2023-03-07T13:02:25.163Z,16.88
2023-03-07T13:03:55.434Z,17.01
2023-03-07T13:04:59.844Z,16.80
2023-03-07T13:06:01.934Z,16.71
2023-03-07T13:07:14.830Z,17.11
2023-03-07T13:08:23.473Z,16.84
2023-03-07T13:09:27.779Z,16.75
2023-03-07T13:10:30.821Z,16.83
2023-03-07T13:11:34.976Z,17.20
2023-03-07T13:12:38.415Z,17.10
2023-03-07T13:13:43.521Z,17.24
2023-03-07T13:14:49.929Z,16.69
2023-03-07T13:16:04.069Z,17.01
2023-03-07T13:17:13.300Z,17.11
2023-03-07T13:18:30.274Z,17.15
2023-03-07T13:19:39.249Z,16.58
2023-03-07T13:20:42.969Z,16.69
2023-03-07T13:21:44.806Z,17.14
2023-03-07T13:22:46.600Z,16.77
2023-03-07T13:23:48.470Z,16.86
2023-03-07T13:24:57.564Z,17.14
2023-03-07T13:26:01.102Z,16.96
2023-03-07T13:27:05.514Z,16.73
2023-03-07T13:28:34.884Z,17.21
2023-03-07T13:30:06.174Z,17.17
2023-03-07T13:31:16.884Z,16.98
2023-03-07T13:32:54.310Z,16.63
2023-03-07T13:33:56.784Z,16.76
2023-03-07T13:34:58.569Z,16.67
2023-03-07T13:36:00.772Z,16.93
2023-03-07T13:37:44.212Z,16.77
2023-03-07T13:38:46.629Z,16.67
2023-03-07T13:40:05.492Z,16.88
2023-03-07T13:41:10.101Z,17.03
2023-03-07T13:42:47.025Z,17.10
2023-03-07T13:43:48.948Z,16.60
2023-03-07T13:44:50.833Z,16.54
2023-03-07T13:46:26.351Z,16.71
2023-03-07T13:47:44.589Z,16.92
2023-03-07T13:48:49.398Z,16.89
2023-03-07T13:49:51.276Z,17.09
2023-03-07T13:50:53.327Z,16.73
2023-03-07T13:52:18.093Z,17.10
2023-03-07T13:53:30.140Z,16.94
2023-03-07T13:54:31.970Z,16.84
2023-03-07T13:55:41.604Z,16.95
2023-03-07T13:56:43.846Z,17.12
2023-03-07T13:57:46.736Z,16.97
2023-03-07T13:59:09.985Z,17.04
2023-03-07T14:00:41.901Z,16.88
2023-03-07T14:01:49.185Z,17.02
2023-03-07T14:02:52.758Z,16.76
2023-03-07T14:03:57.008Z,16.65
2023-03-07T14:05:03.126Z,16.64
2023-03-07T14:06:19.577Z,16.95
2023-03-07T14:07:28.963Z,16.50
2023-03-07T14:08:34.365Z,16.76
2023-03-07T14:09:52.162Z,16.69
2023-03-07T14:10:54.125Z,16.68
2023-03-07T14:12:09.536Z,16.49
2023-03-07T14:13:54.721Z,17.01
2023-03-07T14:15:12.499Z,16.97
2023-03-07T14:16:38.324Z,16.64
2023-03-07T14:17:59.996Z,16.68